home / openregs

legislation_cosponsors

Cosponsors for tracked legislation. Distinguishes original cosponsors (signed on at introduction) from later additions. Linked to congress_members via bioguide_id.

Data license: Public Domain (U.S. Government data) · Data source: Federal Register API & Regulations.gov API

38 rows where bill_id = "110-hr-4652" sorted by sponsorship_date descending

✎ View and edit SQL

This data as json, CSV (advanced)

Suggested facets: state, sponsorship_date, sponsorship_date (date)

is_original_cosponsor 2

  • 1 24
  • 0 14
Link bill_id bioguide_id full_name party state sponsorship_date ▲ is_original_cosponsor
110-hr-4652,S001169 Environmental Justice Access and Implementation Act of 2007 110-hr-4652 S001169 Rep. Sestak, Joe [D-PA-7] D PA 2008-06-24 0
110-hr-4652,W000207 Environmental Justice Access and Implementation Act of 2007 110-hr-4652 W000207 Rep. Watt, Melvin L. [D-NC-12] D NC 2008-05-01 0
110-hr-4652,M001143 Environmental Justice Access and Implementation Act of 2007 110-hr-4652 M001143 Rep. McCollum, Betty [D-MN-4] D MN 2008-05-01 0
110-hr-4652,S001174 Environmental Justice Access and Implementation Act of 2007 110-hr-4652 S001174 Rep. Sutton, Betty [D-OH-13] D OH 2008-05-01 0
110-hr-4652,C001060 Environmental Justice Access and Implementation Act of 2007 110-hr-4652 C001060 Rep. Carnahan, Russ [D-MO-3] D MO 2008-04-29 0
110-hr-4652,M000312 Environmental Justice Access and Implementation Act of 2007 110-hr-4652 M000312 Rep. McGovern, James P. [D-MA-3] D MA 2008-04-29 0
110-hr-4652,J000284 Environmental Justice Access and Implementation Act of 2007 110-hr-4652 J000284 Rep. Jones, Stephanie Tubbs [D-OH-11] D OH 2008-04-29 0
110-hr-4652,M000309 Environmental Justice Access and Implementation Act of 2007 110-hr-4652 M000309 Rep. McCarthy, Carolyn [D-NY-4] D NY 2008-04-29 0
110-hr-4652,C001067 Environmental Justice Access and Implementation Act of 2007 110-hr-4652 C001067 Rep. Clarke, Yvette D. [D-NY-11] D NY 2008-04-16 0
110-hr-4652,M000087 Environmental Justice Access and Implementation Act of 2007 110-hr-4652 M000087 Rep. Maloney, Carolyn B. [D-NY-14] D NY 2008-04-16 0
110-hr-4652,T000326 Environmental Justice Access and Implementation Act of 2007 110-hr-4652 T000326 Rep. Towns, Edolphus [D-NY-10] D NY 2008-04-16 0
110-hr-4652,G000551 Environmental Justice Access and Implementation Act of 2007 110-hr-4652 G000551 Rep. Grijalva, Raúl M. [D-AZ-7] D AZ 2008-02-14 0
110-hr-4652,M001160 Environmental Justice Access and Implementation Act of 2007 110-hr-4652 M001160 Rep. Moore, Gwen [D-WI-4] D WI 2008-01-22 0
110-hr-4652,S001145 Environmental Justice Access and Implementation Act of 2007 110-hr-4652 S001145 Rep. Schakowsky, Janice D. [D-IL-9] D IL 2008-01-22 0
110-hr-4652,S001153 Environmental Justice Access and Implementation Act of 2007 110-hr-4652 S001153 Rep. Solis, Hilda L. [D-CA-32] D CA 2007-12-13 1
110-hr-4652,C000714 Environmental Justice Access and Implementation Act of 2007 110-hr-4652 C000714 Rep. Conyers, John, Jr. [D-MI-14] D MI 2007-12-13 1
110-hr-4652,E000288 Environmental Justice Access and Implementation Act of 2007 110-hr-4652 E000288 Rep. Ellison, Keith [D-MN-5] D MN 2007-12-13 1
110-hr-4652,K000180 Environmental Justice Access and Implementation Act of 2007 110-hr-4652 K000180 Rep. Kilpatrick, Carolyn C. [D-MI-13] D MI 2007-12-13 1
110-hr-4652,D000197 Environmental Justice Access and Implementation Act of 2007 110-hr-4652 D000197 Rep. DeGette, Diana [D-CO-1] D CO 2007-12-13 1
110-hr-4652,U000038 Environmental Justice Access and Implementation Act of 2007 110-hr-4652 U000038 Rep. Udall, Mark [D-CO-2] D CO 2007-12-13 1
110-hr-4652,P000034 Environmental Justice Access and Implementation Act of 2007 110-hr-4652 P000034 Rep. Pallone, Frank, Jr. [D-NJ-6] D NJ 2007-12-13 1
110-hr-4652,C000380 Environmental Justice Access and Implementation Act of 2007 110-hr-4652 C000380 Del. Christensen, Donna M. [D-VI-At Large] D VI 2007-12-13 1
110-hr-4652,M001148 Environmental Justice Access and Implementation Act of 2007 110-hr-4652 M001148 Rep. Meek, Kendrick B. [D-FL-17] D FL 2007-12-13 1
110-hr-4652,B000911 Environmental Justice Access and Implementation Act of 2007 110-hr-4652 B000911 Rep. Brown, Corrine [D-FL-3] D FL 2007-12-13 1
110-hr-4652,W000314 Environmental Justice Access and Implementation Act of 2007 110-hr-4652 W000314 Rep. Wexler, Robert [D-FL-19] D FL 2007-12-13 1
110-hr-4652,W000797 Environmental Justice Access and Implementation Act of 2007 110-hr-4652 W000797 Rep. Wasserman Schultz, Debbie [D-FL-20] D FL 2007-12-13 1
110-hr-4652,H001034 Environmental Justice Access and Implementation Act of 2007 110-hr-4652 H001034 Rep. Honda, Michael M. [D-CA-15] D CA 2007-12-13 1
110-hr-4652,P000149 Environmental Justice Access and Implementation Act of 2007 110-hr-4652 P000149 Rep. Payne, Donald M. [D-NJ-10] D NJ 2007-12-13 1
110-hr-4652,S000248 Environmental Justice Access and Implementation Act of 2007 110-hr-4652 S000248 Rep. Serrano, Jose E. [D-NY-16] D NY 2007-12-13 1
110-hr-4652,C001049 Environmental Justice Access and Implementation Act of 2007 110-hr-4652 C001049 Rep. Clay, Wm. Lacy [D-MO-1] D MO 2007-12-13 1
110-hr-4652,B000410 Environmental Justice Access and Implementation Act of 2007 110-hr-4652 B000410 Rep. Berman, Howard L. [D-CA-28] D CA 2007-12-13 1
110-hr-4652,L000551 Environmental Justice Access and Implementation Act of 2007 110-hr-4652 L000551 Rep. Lee, Barbara [D-CA-9] D CA 2007-12-13 1
110-hr-4652,N000002 Environmental Justice Access and Implementation Act of 2007 110-hr-4652 N000002 Rep. Nadler, Jerrold [D-NY-8] D NY 2007-12-13 1
110-hr-4652,H000627 Environmental Justice Access and Implementation Act of 2007 110-hr-4652 H000627 Rep. Hinchey, Maurice D. [D-NY-22] D NY 2007-12-13 1
110-hr-4652,J000032 Environmental Justice Access and Implementation Act of 2007 110-hr-4652 J000032 Rep. Jackson-Lee, Sheila [D-TX-18] D TX 2007-12-13 1
110-hr-4652,H000636 Environmental Justice Access and Implementation Act of 2007 110-hr-4652 H000636 Rep. Hinojosa, Ruben [D-TX-15] D TX 2007-12-13 1
110-hr-4652,K000336 Environmental Justice Access and Implementation Act of 2007 110-hr-4652 K000336 Rep. Kucinich, Dennis J. [D-OH-10] D OH 2007-12-13 1
110-hr-4652,B001231 Environmental Justice Access and Implementation Act of 2007 110-hr-4652 B001231 Rep. Berkley, Shelley [D-NV-1] D NV 2007-12-13 1

Advanced export

JSON shape: default, array, newline-delimited, object

CSV options:

CREATE TABLE legislation_cosponsors (
    bill_id TEXT NOT NULL REFERENCES legislation(bill_id),
    bioguide_id TEXT NOT NULL,
    full_name TEXT,
    party TEXT,
    state TEXT,
    sponsorship_date TEXT,
    is_original_cosponsor INTEGER,
    PRIMARY KEY (bill_id, bioguide_id)
);
CREATE INDEX idx_lc_bioguide ON legislation_cosponsors(bioguide_id);
CREATE INDEX idx_lc_bill ON legislation_cosponsors(bill_id);
CREATE INDEX idx_lc_original ON legislation_cosponsors(is_original_cosponsor);
Powered by Datasette · Queries took 229.141ms · Data license: Public Domain (U.S. Government data) · Data source: Federal Register API & Regulations.gov API